sensor_id;sensor_type;location;lat;lon;timestamp;P1;durP1;ratioP1;P2;durP2;ratioP2
8327;SDS011;4201;48.754;8.864;2024-01-30T00:02:14;14.27;;;9.00;;
8327;SDS011;4201;48.754;8.864;2024-01-30T00:04:42;16.20;;;8.90;;
8327;SDS011;4201;48.754;8.864;2024-01-30T00:07:08;17.60;;;9.40;;
8327;SDS011;4201;48.754;8.864;2024-01-30T00:09:34;15.30;;;10.53;;
8327;SDS011;4201;48.754;8.864;2024-01-30T00:12:00;18.10;;;12.90;;
8327;SDS011;4201;48.754;8.864;2024-01-30T00:14:27;23.37;;;15.57;;
8327;SDS011;4201;48.754;8.864;2024-01-30T00:16:53;20.17;;;14.57;;
8327;SDS011;4201;48.754;8.864;2024-01-30T00:19:19;20.20;;;13.77;;
8327;SDS011;4201;48.754;8.864;2024-01-30T00:21:47;19.43;;;13.17;;
8327;SDS011;4201;48.754;8.864;2024-01-30T00:24:13;22.13;;;15.57;;
8327;SDS011;4201;48.754;8.864;2024-01-30T00:26:39;24.87;;;17.53;;
8327;SDS011;4201;48.754;8.864;2024-01-30T00:29:05;19.17;;;14.50;;
8327;SDS011;4201;48.754;8.864;2024-01-30T00:31:32;21.20;;;14.50;;
8327;SDS011;4201;48.754;8.864;2024-01-30T00:33:58;21.43;;;14.97;;
8327;SDS011;4201;48.754;8.864;2024-01-30T00:36:23;22.30;;;15.37;;
8327;SDS011;4201;48.754;8.864;2024-01-30T00:38:51;18.47;;;13.60;;
8327;SDS011;4201;48.754;8.864;2024-01-30T00:41:17;21.93;;;14.50;;
8327;SDS011;4201;48.754;8.864;2024-01-30T00:43:43;23.13;;;15.77;;
8327;SDS011;4201;48.754;8.864;2024-01-30T00:46:10;20.00;;;13.70;;
8327;SDS011;4201;48.754;8.864;2024-01-30T00:48:36;20.77;;;12.77;;
8327;SDS011;4201;48.754;8.864;2024-01-30T00:51:02;15.93;;;10.93;;
8327;SDS011;4201;48.754;8.864;2024-01-30T00:53:28;17.30;;;12.20;;
8327;SDS011;4201;48.754;8.864;2024-01-30T00:55:56;20.03;;;13.07;;
8327;SDS011;4201;48.754;8.864;2024-01-30T00:58:22;20.00;;;13.80;;
8327;SDS011;4201;48.754;8.864;2024-01-30T01:00:48;19.40;;;12.73;;
8327;SDS011;4201;48.754;8.864;2024-01-30T01:03:15;22.10;;;13.03;;
8327;SDS011;4201;48.754;8.864;2024-01-30T01:05:41;19.27;;;12.77;;
8327;SDS011;4201;48.754;8.864;2024-01-30T01:08:07;16.87;;;11.13;;
8327;SDS011;4201;48.754;8.864;2024-01-30T01:10:34;14.07;;;11.70;;
8327;SDS011;4201;48.754;8.864;2024-01-30T01:13:01;14.23;;;9.80;;
8327;SDS011;4201;48.754;8.864;2024-01-30T01:15:28;20.40;;;11.70;;
8327;SDS011;4201;48.754;8.864;2024-01-30T01:17:54;24.03;;;12.63;;
8327;SDS011;4201;48.754;8.864;2024-01-30T01:20:20;18.63;;;11.70;;
8327;SDS011;4201;48.754;8.864;2024-01-30T01:22:47;18.70;;;11.50;;
8327;SDS011;4201;48.754;8.864;2024-01-30T01:25:13;21.83;;;13.50;;
8327;SDS011;4201;48.754;8.864;2024-01-30T01:27:40;16.33;;;11.83;;
8327;SDS011;4201;48.754;8.864;2024-01-30T01:30:10;19.90;;;12.90;;
8327;SDS011;4201;48.754;8.864;2024-01-30T01:32:36;21.80;;;16.13;;
8327;SDS011;4201;48.754;8.864;2024-01-30T01:35:04;25.40;;;15.40;;
8327;SDS011;4201;48.754;8.864;2024-01-30T01:37:30;18.50;;;12.93;;
8327;SDS011;4201;48.754;8.864;2024-01-30T01:39:56;21.27;;;12.80;;
8327;SDS011;4201;48.754;8.864;2024-01-30T01:42:22;20.10;;;13.77;;
8327;SDS011;4201;48.754;8.864;2024-01-30T01:44:49;24.70;;;14.40;;
8327;SDS011;4201;48.754;8.864;2024-01-30T01:47:16;21.47;;;13.10;;
8327;SDS011;4201;48.754;8.864;2024-01-30T01:49:43;13.20;;;9.77;;
8327;SDS011;4201;48.754;8.864;2024-01-30T01:52:09;15.20;;;9.90;;
8327;SDS011;4201;48.754;8.864;2024-01-30T01:54:35;14.10;;;9.50;;
8327;SDS011;4201;48.754;8.864;2024-01-30T01:57:02;16.70;;;9.03;;
8327;SDS011;4201;48.754;8.864;2024-01-30T01:59:29;12.97;;;8.63;;
8327;SDS011;4201;48.754;8.864;2024-01-30T02:01:55;15.53;;;8.93;;
8327;SDS011;4201;48.754;8.864;2024-01-30T02:04:23;16.73;;;8.60;;
8327;SDS011;4201;48.754;8.864;2024-01-30T02:06:49;13.23;;;9.03;;
8327;SDS011;4201;48.754;8.864;2024-01-30T02:09:15;13.67;;;9.33;;
8327;SDS011;4201;48.754;8.864;2024-01-30T02:11:41;15.90;;;9.87;;
8327;SDS011;4201;48.754;8.864;2024-01-30T02:14:08;14.73;;;8.40;;
8327;SDS011;4201;48.754;8.864;2024-01-30T02:16:34;12.83;;;9.37;;
8327;SDS011;4201;48.754;8.864;2024-01-30T02:19:01;14.30;;;8.10;;
8327;SDS011;4201;48.754;8.864;2024-01-30T02:21:29;12.83;;;9.10;;
8327;SDS011;4201;48.754;8.864;2024-01-30T02:23:55;11.87;;;7.90;;
8327;SDS011;4201;48.754;8.864;2024-01-30T02:26:22;13.90;;;8.60;;
8327;SDS011;4201;48.754;8.864;2024-01-30T02:28:48;12.43;;;8.63;;
8327;SDS011;4201;48.754;8.864;2024-01-30T02:31:14;13.60;;;8.33;;
8327;SDS011;4201;48.754;8.864;2024-01-30T02:33:41;17.40;;;8.93;;
8327;SDS011;4201;48.754;8.864;2024-01-30T02:36:07;11.17;;;6.90;;
8327;SDS011;4201;48.754;8.864;2024-01-30T02:38:35;14.83;;;8.37;;
8327;SDS011;4201;48.754;8.864;2024-01-30T02:41:01;13.23;;;6.10;;
8327;SDS011;4201;48.754;8.864;2024-01-30T02:43:27;13.90;;;7.70;;
8327;SDS011;4201;48.754;8.864;2024-01-30T02:45:53;11.77;;;8.10;;
8327;SDS011;4201;48.754;8.864;2024-01-30T02:48:19;7.97;;;6.50;;
8327;SDS011;4201;48.754;8.864;2024-01-30T02:50:46;10.10;;;6.33;;
8327;SDS011;4201;48.754;8.864;2024-01-30T02:53:12;13.53;;;10.10;;
8327;SDS011;4201;48.754;8.864;2024-01-30T02:55:40;19.93;;;10.43;;
8327;SDS011;4201;48.754;8.864;2024-01-30T02:58:06;15.40;;;9.80;;
8327;SDS011;4201;48.754;8.864;2024-01-30T03:00:32;14.27;;;9.63;;
8327;SDS011;4201;48.754;8.864;2024-01-30T03:02:59;14.57;;;9.63;;
8327;SDS011;4201;48.754;8.864;2024-01-30T03:05:25;20.67;;;11.67;;
8327;SDS011;4201;48.754;8.864;2024-01-30T03:07:51;16.67;;;11.10;;
8327;SDS011;4201;48.754;8.864;2024-01-30T03:10:18;19.57;;;12.30;;
8327;SDS011;4201;48.754;8.864;2024-01-30T03:12:45;24.63;;;13.00;;
8327;SDS011;4201;48.754;8.864;2024-01-30T03:15:11;23.20;;;12.70;;
8327;SDS011;4201;48.754;8.864;2024-01-30T03:17:38;21.37;;;12.57;;
8327;SDS011;4201;48.754;8.864;2024-01-30T03:20:04;17.67;;;11.33;;
8327;SDS011;4201;48.754;8.864;2024-01-30T03:22:31;16.10;;;11.53;;
8327;SDS011;4201;48.754;8.864;2024-01-30T03:24:57;17.30;;;12.10;;
8327;SDS011;4201;48.754;8.864;2024-01-30T03:27:24;22.00;;;10.97;;
8327;SDS011;4201;48.754;8.864;2024-01-30T03:29:51;16.53;;;11.80;;
8327;SDS011;4201;48.754;8.864;2024-01-30T03:32:18;17.80;;;11.57;;
8327;SDS011;4201;48.754;8.864;2024-01-30T03:34:43;15.80;;;8.87;;
8327;SDS011;4201;48.754;8.864;2024-01-30T03:37:09;12.60;;;7.70;;
8327;SDS011;4201;48.754;8.864;2024-01-30T03:39:35;13.10;;;6.60;;
8327;SDS011;4201;48.754;8.864;2024-01-30T03:42:02;9.40;;;6.43;;
8327;SDS011;4201;48.754;8.864;2024-01-30T03:44:28;15.67;;;9.43;;
8327;SDS011;4201;48.754;8.864;2024-01-30T03:46:55;14.43;;;10.20;;
8327;SDS011;4201;48.754;8.864;2024-01-30T03:49:22;14.47;;;11.40;;
8327;SDS011;4201;48.754;8.864;2024-01-30T03:51:48;14.10;;;10.23;;
8327;SDS011;4201;48.754;8.864;2024-01-30T03:54:14;19.57;;;10.93;;
8327;SDS011;4201;48.754;8.864;2024-01-30T03:56:41;13.03;;;7.80;;
8327;SDS011;4201;48.754;8.864;2024-01-30T03:59:07;10.23;;;6.87;;
8327;SDS011;4201;48.754;8.864;2024-01-30T04:01:33;9.63;;;6.40;;
8327;SDS011;4201;48.754;8.864;2024-01-30T04:04:01;12.80;;;7.10;;
8327;SDS011;4201;48.754;8.864;2024-01-30T04:06:27;10.53;;;8.10;;
8327;SDS011;4201;48.754;8.864;2024-01-30T04:08:53;10.60;;;7.13;;
8327;SDS011;4201;48.754;8.864;2024-01-30T04:11:19;15.80;;;9.03;;
8327;SDS011;4201;48.754;8.864;2024-01-30T04:13:46;15.53;;;8.80;;
8327;SDS011;4201;48.754;8.864;2024-01-30T04:16:18;12.20;;;7.97;;
8327;SDS011;4201;48.754;8.864;2024-01-30T04:18:45;12.90;;;8.30;;
8327;SDS011;4201;48.754;8.864;2024-01-30T04:21:12;14.93;;;9.17;;
8327;SDS011;4201;48.754;8.864;2024-01-30T04:23:39;16.23;;;9.10;;
8327;SDS011;4201;48.754;8.864;2024-01-30T04:26:05;15.90;;;8.50;;
8327;SDS011;4201;48.754;8.864;2024-01-30T04:28:31;14.70;;;8.80;;
8327;SDS011;4201;48.754;8.864;2024-01-30T04:30:58;13.00;;;9.10;;
8327;SDS011;4201;48.754;8.864;2024-01-30T04:33:24;15.40;;;9.33;;
8327;SDS011;4201;48.754;8.864;2024-01-30T04:35:50;19.83;;;9.97;;
8327;SDS011;4201;48.754;8.864;2024-01-30T04:38:18;17.40;;;10.43;;
8327;SDS011;4201;48.754;8.864;2024-01-30T04:40:44;15.30;;;9.80;;
8327;SDS011;4201;48.754;8.864;2024-01-30T04:43:10;12.77;;;8.60;;
8327;SDS011;4201;48.754;8.864;2024-01-30T04:45:37;18.33;;;10.40;;
8327;SDS011;4201;48.754;8.864;2024-01-30T04:48:03;14.73;;;9.97;;
8327;SDS011;4201;48.754;8.864;2024-01-30T04:50:29;15.53;;;9.17;;
8327;SDS011;4201;48.754;8.864;2024-01-30T04:52:55;10.80;;;7.63;;
8327;SDS011;4201;48.754;8.864;2024-01-30T04:55:23;15.73;;;8.10;;
8327;SDS011;4201;48.754;8.864;2024-01-30T04:57:49;13.23;;;8.70;;
8327;SDS011;4201;48.754;8.864;2024-01-30T05:00:16;16.10;;;8.43;;
8327;SDS011;4201;48.754;8.864;2024-01-30T05:02:42;12.47;;;8.77;;
8327;SDS011;4201;48.754;8.864;2024-01-30T05:05:08;17.23;;;8.50;;
8327;SDS011;4201;48.754;8.864;2024-01-30T05:07:34;11.13;;;8.03;;
8327;SDS011;4201;48.754;8.864;2024-01-30T05:10:01;14.57;;;8.30;;
8327;SDS011;4201;48.754;8.864;2024-01-30T05:12:29;12.97;;;7.30;;
8327;SDS011;4201;48.754;8.864;2024-01-30T05:14:55;11.70;;;6.97;;
8327;SDS011;4201;48.754;8.864;2024-01-30T05:17:22;11.80;;;7.63;;
8327;SDS011;4201;48.754;8.864;2024-01-30T05:19:48;11.40;;;7.27;;
8327;SDS011;4201;48.754;8.864;2024-01-30T05:22:14;9.90;;;6.17;;
8327;SDS011;4201;48.754;8.864;2024-01-30T05:24:40;11.53;;;7.87;;
8327;SDS011;4201;48.754;8.864;2024-01-30T05:27:07;10.60;;;7.03;;
8327;SDS011;4201;48.754;8.864;2024-01-30T05:29:34;11.50;;;6.60;;
8327;SDS011;4201;48.754;8.864;2024-01-30T05:32:00;14.03;;;8.93;;
8327;SDS011;4201;48.754;8.864;2024-01-30T05:34:27;9.53;;;7.00;;
8327;SDS011;4201;48.754;8.864;2024-01-30T05:36:53;14.13;;;7.17;;
8327;SDS011;4201;48.754;8.864;2024-01-30T05:39:19;10.97;;;6.80;;
8327;SDS011;4201;48.754;8.864;2024-01-30T05:41:46;9.43;;;6.90;;
8327;SDS011;4201;48.754;8.864;2024-01-30T05:44:12;15.70;;;9.20;;
8327;SDS011;4201;48.754;8.864;2024-01-30T05:46:39;12.80;;;8.37;;
8327;SDS011;4201;48.754;8.864;2024-01-30T05:49:06;19.23;;;12.30;;
8327;SDS011;4201;48.754;8.864;2024-01-30T05:51:32;28.43;;;17.90;;
8327;SDS011;4201;48.754;8.864;2024-01-30T05:53:58;15.27;;;11.93;;
8327;SDS011;4201;48.754;8.864;2024-01-30T05:56:24;15.70;;;8.77;;
8327;SDS011;4201;48.754;8.864;2024-01-30T05:58:50;11.73;;;9.07;;
8327;SDS011;4201;48.754;8.864;2024-01-30T06:01:17;10.60;;;8.00;;
8327;SDS011;4201;48.754;8.864;2024-01-30T06:03:44;17.60;;;8.17;;
8327;SDS011;4201;48.754;8.864;2024-01-30T06:06:10;10.97;;;7.07;;
8327;SDS011;4201;48.754;8.864;2024-01-30T06:08:37;8.80;;;6.80;;
8327;SDS011;4201;48.754;8.864;2024-01-30T06:11:03;11.57;;;8.23;;
8327;SDS011;4201;48.754;8.864;2024-01-30T06:13:29;12.47;;;8.70;;
8327;SDS011;4201;48.754;8.864;2024-01-30T06:15:56;10.87;;;7.73;;
8327;SDS011;4201;48.754;8.864;2024-01-30T06:18:23;10.53;;;7.97;;
8327;SDS011;4201;48.754;8.864;2024-01-30T06:20:51;9.83;;;7.00;;
8327;SDS011;4201;48.754;8.864;2024-01-30T06:23:17;9.30;;;7.20;;
8327;SDS011;4201;48.754;8.864;2024-01-30T06:25:43;9.50;;;6.50;;
8327;SDS011;4201;48.754;8.864;2024-01-30T06:28:09;10.90;;;7.70;;
8327;SDS011;4201;48.754;8.864;2024-01-30T06:30:36;12.33;;;8.03;;
8327;SDS011;4201;48.754;8.864;2024-01-30T06:33:02;12.60;;;8.70;;
8327;SDS011;4201;48.754;8.864;2024-01-30T06:35:28;15.53;;;8.00;;
8327;SDS011;4201;48.754;8.864;2024-01-30T06:37:56;11.37;;;7.80;;
8327;SDS011;4201;48.754;8.864;2024-01-30T06:40:22;10.90;;;7.97;;
8327;SDS011;4201;48.754;8.864;2024-01-30T06:42:48;11.87;;;8.80;;
8327;SDS011;4201;48.754;8.864;2024-01-30T06:45:15;12.50;;;7.67;;
8327;SDS011;4201;48.754;8.864;2024-01-30T06:47:41;11.10;;;6.50;;
8327;SDS011;4201;48.754;8.864;2024-01-30T06:50:08;10.97;;;7.33;;
8327;SDS011;4201;48.754;8.864;2024-01-30T06:52:34;10.18;;;7.03;;
8327;SDS011;4201;48.754;8.864;2024-01-30T06:55:02;10.20;;;7.10;;
8327;SDS011;4201;48.754;8.864;2024-01-30T06:57:28;9.03;;;6.30;;
8327;SDS011;4201;48.754;8.864;2024-01-30T06:59:55;12.10;;;7.80;;
8327;SDS011;4201;48.754;8.864;2024-01-30T07:02:21;11.23;;;7.60;;
8327;SDS011;4201;48.754;8.864;2024-01-30T07:04:48;9.77;;;6.73;;
8327;SDS011;4201;48.754;8.864;2024-01-30T07:07:14;10.00;;;6.67;;
8327;SDS011;4201;48.754;8.864;2024-01-30T07:09:40;10.43;;;7.13;;
8327;SDS011;4201;48.754;8.864;2024-01-30T07:12:08;11.67;;;7.90;;
8327;SDS011;4201;48.754;8.864;2024-01-30T07:14:34;8.87;;;6.53;;
8327;SDS011;4201;48.754;8.864;2024-01-30T07:17:01;10.70;;;5.87;;
8327;SDS011;4201;48.754;8.864;2024-01-30T07:19:27;9.77;;;6.37;;
8327;SDS011;4201;48.754;8.864;2024-01-30T07:21:53;7.50;;;5.37;;
8327;SDS011;4201;48.754;8.864;2024-01-30T07:24:20;9.23;;;5.70;;
8327;SDS011;4201;48.754;8.864;2024-01-30T07:26:46;8.37;;;5.03;;
8327;SDS011;4201;48.754;8.864;2024-01-30T07:29:14;7.67;;;4.60;;
8327;SDS011;4201;48.754;8.864;2024-01-30T07:31:40;10.90;;;5.33;;
8327;SDS011;4201;48.754;8.864;2024-01-30T07:34:06;9.57;;;5.70;;
8327;SDS011;4201;48.754;8.864;2024-01-30T07:36:32;8.03;;;5.40;;
8327;SDS011;4201;48.754;8.864;2024-01-30T07:38:59;18.23;;;12.93;;
8327;SDS011;4201;48.754;8.864;2024-01-30T07:41:25;22.50;;;14.87;;
8327;SDS011;4201;48.754;8.864;2024-01-30T07:43:51;29.63;;;17.87;;
8327;SDS011;4201;48.754;8.864;2024-01-30T07:46:20;28.80;;;17.03;;
8327;SDS011;4201;48.754;8.864;2024-01-30T07:48:46;37.30;;;19.13;;
8327;SDS011;4201;48.754;8.864;2024-01-30T07:51:12;29.50;;;17.17;;
8327;SDS011;4201;48.754;8.864;2024-01-30T07:53:38;29.67;;;17.70;;
8327;SDS011;4201;48.754;8.864;2024-01-30T07:56:05;13.90;;;8.10;;
8327;SDS011;4201;48.754;8.864;2024-01-30T07:58:31;15.63;;;8.93;;
8327;SDS011;4201;48.754;8.864;2024-01-30T08:00:57;9.60;;;7.80;;
8327;SDS011;4201;48.754;8.864;2024-01-30T08:03:26;14.87;;;9.43;;
8327;SDS011;4201;48.754;8.864;2024-01-30T08:05:53;16.40;;;10.00;;
8327;SDS011;4201;48.754;8.864;2024-01-30T08:08:19;13.30;;;8.80;;
8327;SDS011;4201;48.754;8.864;2024-01-30T08:10:45;27.10;;;9.83;;
8327;SDS011;4201;48.754;8.864;2024-01-30T08:13:11;16.37;;;10.00;;
8327;SDS011;4201;48.754;8.864;2024-01-30T08:15:38;19.13;;;7.83;;
8327;SDS011;4201;48.754;8.864;2024-01-30T08:18:04;14.10;;;9.53;;
8327;SDS011;4201;48.754;8.864;2024-01-30T08:20:33;17.33;;;10.53;;
8327;SDS011;4201;48.754;8.864;2024-01-30T08:22:59;17.97;;;9.90;;
8327;SDS011;4201;48.754;8.864;2024-01-30T08:25:26;21.33;;;9.90;;
8327;SDS011;4201;48.754;8.864;2024-01-30T08:27:52;17.33;;;9.17;;
8327;SDS011;4201;48.754;8.864;2024-01-30T08:30:18;14.03;;;10.70;;
8327;SDS011;4201;48.754;8.864;2024-01-30T08:32:45;14.47;;;9.30;;
8327;SDS011;4201;48.754;8.864;2024-01-30T08:35:12;10.00;;;7.13;;
8327;SDS011;4201;48.754;8.864;2024-01-30T08:37:40;12.20;;;7.03;;
8327;SDS011;4201;48.754;8.864;2024-01-30T08:40:07;12.40;;;8.30;;
8327;SDS011;4201;48.754;8.864;2024-01-30T08:42:34;16.60;;;7.57;;
8327;SDS011;4201;48.754;8.864;2024-01-30T08:45:00;11.33;;;7.03;;
8327;SDS011;4201;48.754;8.864;2024-01-30T08:47:27;15.27;;;8.43;;
8327;SDS011;4201;48.754;8.864;2024-01-30T08:49:53;10.97;;;7.33;;
8327;SDS011;4201;48.754;8.864;2024-01-30T08:52:19;11.00;;;7.80;;
8327;SDS011;4201;48.754;8.864;2024-01-30T08:54:47;13.27;;;7.37;;
8327;SDS011;4201;48.754;8.864;2024-01-30T08:57:13;15.03;;;8.00;;
8327;SDS011;4201;48.754;8.864;2024-01-30T08:59:40;12.10;;;7.70;;
8327;SDS011;4201;48.754;8.864;2024-01-30T09:02:06;21.83;;;7.73;;
8327;SDS011;4201;48.754;8.864;2024-01-30T09:04:33;14.17;;;7.60;;
8327;SDS011;4201;48.754;8.864;2024-01-30T09:07:00;26.27;;;12.40;;
8327;SDS011;4201;48.754;8.864;2024-01-30T09:09:27;18.40;;;13.37;;
8327;SDS011;4201;48.754;8.864;2024-01-30T09:11:55;25.27;;;14.10;;
8327;SDS011;4201;48.754;8.864;2024-01-30T09:14:21;16.40;;;12.10;;
8327;SDS011;4201;48.754;8.864;2024-01-30T09:16:47;13.83;;;10.63;;
8327;SDS011;4201;48.754;8.864;2024-01-30T09:19:14;18.97;;;12.27;;
8327;SDS011;4201;48.754;8.864;2024-01-30T09:21:40;19.67;;;12.87;;
8327;SDS011;4201;48.754;8.864;2024-01-30T09:24:06;20.17;;;14.87;;
8327;SDS011;4201;48.754;8.864;2024-01-30T09:26:34;20.93;;;13.90;;
8327;SDS011;4201;48.754;8.864;2024-01-30T09:29:04;16.80;;;12.90;;
8327;SDS011;4201;48.754;8.864;2024-01-30T09:31:30;18.50;;;13.30;;
8327;SDS011;4201;48.754;8.864;2024-01-30T09:33:56;16.67;;;13.43;;
8327;SDS011;4201;48.754;8.864;2024-01-30T09:36:23;20.30;;;13.40;;
8327;SDS011;4201;48.754;8.864;2024-01-30T09:38:49;18.20;;;12.77;;
8327;SDS011;4201;48.754;8.864;2024-01-30T09:41:16;19.83;;;13.63;;
8327;SDS011;4201;48.754;8.864;2024-01-30T09:43:44;16.20;;;13.10;;
8327;SDS011;4201;48.754;8.864;2024-01-30T09:46:15;16.57;;;12.63;;
8327;SDS011;4201;48.754;8.864;2024-01-30T09:48:42;17.03;;;12.60;;
8327;SDS011;4201;48.754;8.864;2024-01-30T09:51:09;19.63;;;9.27;;
8327;SDS011;4201;48.754;8.864;2024-01-30T09:53:35;14.07;;;10.10;;
8327;SDS011;4201;48.754;8.864;2024-01-30T09:56:02;15.97;;;11.63;;
8327;SDS011;4201;48.754;8.864;2024-01-30T09:58:28;17.67;;;11.53;;
8327;SDS011;4201;48.754;8.864;2024-01-30T10:00:55;20.83;;;10.93;;
8327;SDS011;4201;48.754;8.864;2024-01-30T10:03:22;19.23;;;11.20;;
8327;SDS011;4201;48.754;8.864;2024-01-30T10:05:49;17.80;;;9.73;;
8327;SDS011;4201;48.754;8.864;2024-01-30T10:08:16;12.57;;;8.30;;
8327;SDS011;4201;48.754;8.864;2024-01-30T10:10:45;13.00;;;7.13;;
8327;SDS011;4201;48.754;8.864;2024-01-30T10:13:11;11.00;;;6.53;;
8327;SDS011;4201;48.754;8.864;2024-01-30T10:15:37;11.70;;;7.60;;
8327;SDS011;4201;48.754;8.864;2024-01-30T10:18:05;11.40;;;8.50;;
8327;SDS011;4201;48.754;8.864;2024-01-30T10:20:33;12.70;;;8.57;;
8327;SDS011;4201;48.754;8.864;2024-01-30T10:22:59;71.70;;;27.93;;
8327;SDS011;4201;48.754;8.864;2024-01-30T10:25:26;63.87;;;36.13;;
8327;SDS011;4201;48.754;8.864;2024-01-30T10:27:52;20.27;;;12.47;;
8327;SDS011;4201;48.754;8.864;2024-01-30T10:30:19;14.87;;;8.20;;
8327;SDS011;4201;48.754;8.864;2024-01-30T10:32:45;11.17;;;6.87;;
8327;SDS011;4201;48.754;8.864;2024-01-30T10:35:11;10.37;;;6.97;;
8327;SDS011;4201;48.754;8.864;2024-01-30T10:37:39;8.97;;;6.60;;
8327;SDS011;4201;48.754;8.864;2024-01-30T10:40:05;9.57;;;6.73;;
8327;SDS011;4201;48.754;8.864;2024-01-30T10:42:33;9.60;;;6.77;;
8327;SDS011;4201;48.754;8.864;2024-01-30T10:45:03;11.80;;;7.43;;
8327;SDS011;4201;48.754;8.864;2024-01-30T10:47:32;14.20;;;7.83;;
8327;SDS011;4201;48.754;8.864;2024-01-30T10:50:00;11.67;;;7.10;;
8327;SDS011;4201;48.754;8.864;2024-01-30T10:52:26;10.40;;;7.30;;
8327;SDS011;4201;48.754;8.864;2024-01-30T10:54:56;11.33;;;7.70;;
8327;SDS011;4201;48.754;8.864;2024-01-30T10:57:23;9.73;;;7.20;;
8327;SDS011;4201;48.754;8.864;2024-01-30T10:59:49;13.23;;;7.73;;
8327;SDS011;4201;48.754;8.864;2024-01-30T11:02:16;12.10;;;7.40;;
8327;SDS011;4201;48.754;8.864;2024-01-30T11:04:42;15.33;;;10.03;;
8327;SDS011;4201;48.754;8.864;2024-01-30T11:07:15;25.40;;;13.00;;
8327;SDS011;4201;48.754;8.864;2024-01-30T11:09:48;17.80;;;11.27;;
8327;SDS011;4201;48.754;8.864;2024-01-30T11:12:15;16.60;;;10.60;;
8327;SDS011;4201;48.754;8.864;2024-01-30T11:14:42;18.13;;;11.40;;
8327;SDS011;4201;48.754;8.864;2024-01-30T11:17:09;16.40;;;10.73;;
8327;SDS011;4201;48.754;8.864;2024-01-30T11:19:37;21.50;;;12.27;;
8327;SDS011;4201;48.754;8.864;2024-01-30T11:22:03;21.87;;;12.20;;
8327;SDS011;4201;48.754;8.864;2024-01-30T11:24:36;20.47;;;12.83;;
8327;SDS011;4201;48.754;8.864;2024-01-30T11:27:03;17.00;;;11.77;;
8327;SDS011;4201;48.754;8.864;2024-01-30T11:29:35;14.60;;;10.60;;
8327;SDS011;4201;48.754;8.864;2024-01-30T11:32:01;18.07;;;12.50;;
8327;SDS011;4201;48.754;8.864;2024-01-30T11:34:28;16.57;;;12.30;;
8327;SDS011;4201;48.754;8.864;2024-01-30T11:36:56;15.50;;;12.20;;
8327;SDS011;4201;48.754;8.864;2024-01-30T11:39:24;20.07;;;11.70;;
8327;SDS011;4201;48.754;8.864;2024-01-30T11:41:51;22.00;;;13.40;;
8327;SDS011;4201;48.754;8.864;2024-01-30T11:44:17;17.80;;;13.10;;
8327;SDS011;4201;48.754;8.864;2024-01-30T11:46:46;19.40;;;11.60;;
8327;SDS011;4201;48.754;8.864;2024-01-30T11:49:12;20.13;;;13.57;;
8327;SDS011;4201;48.754;8.864;2024-01-30T11:51:39;18.13;;;12.30;;
8327;SDS011;4201;48.754;8.864;2024-01-30T11:54:05;24.80;;;12.23;;
8327;SDS011;4201;48.754;8.864;2024-01-30T11:56:33;20.63;;;12.17;;
8327;SDS011;4201;48.754;8.864;2024-01-30T11:58:59;19.43;;;11.23;;
8327;SDS011;4201;48.754;8.864;2024-01-30T12:01:26;17.67;;;12.10;;
8327;SDS011;4201;48.754;8.864;2024-01-30T12:03:53;16.33;;;11.40;;
8327;SDS011;4201;48.754;8.864;2024-01-30T12:06:21;21.33;;;12.23;;
8327;SDS011;4201;48.754;8.864;2024-01-30T12:08:56;17.53;;;12.23;;
8327;SDS011;4201;48.754;8.864;2024-01-30T12:11:22;18.60;;;12.10;;
8327;SDS011;4201;48.754;8.864;2024-01-30T12:13:48;17.37;;;11.70;;
8327;SDS011;4201;48.754;8.864;2024-01-30T12:16:15;18.43;;;11.63;;
8327;SDS011;4201;48.754;8.864;2024-01-30T12:18:42;15.07;;;11.30;;
8327;SDS011;4201;48.754;8.864;2024-01-30T12:21:09;20.10;;;11.50;;
8327;SDS011;4201;48.754;8.864;2024-01-30T12:23:36;15.83;;;11.30;;
8327;SDS011;4201;48.754;8.864;2024-01-30T12:26:02;15.03;;;11.20;;
8327;SDS011;4201;48.754;8.864;2024-01-30T12:28:32;17.90;;;11.43;;
8327;SDS011;4201;48.754;8.864;2024-01-30T12:31:00;14.40;;;10.67;;
8327;SDS011;4201;48.754;8.864;2024-01-30T12:33:28;18.10;;;11.43;;
8327;SDS011;4201;48.754;8.864;2024-01-30T12:35:54;20.00;;;11.63;;
8327;SDS011;4201;48.754;8.864;2024-01-30T12:38:22;17.10;;;10.87;;
8327;SDS011;4201;48.754;8.864;2024-01-30T12:40:49;22.33;;;11.27;;
8327;SDS011;4201;48.754;8.864;2024-01-30T12:43:16;18.70;;;11.30;;
8327;SDS011;4201;48.754;8.864;2024-01-30T12:45:42;17.47;;;11.50;;
8327;SDS011;4201;48.754;8.864;2024-01-30T12:48:09;19.07;;;11.37;;
8327;SDS011;4201;48.754;8.864;2024-01-30T12:50:35;25.33;;;10.47;;
8327;SDS011;4201;48.754;8.864;2024-01-30T12:53:01;18.03;;;10.87;;
8327;SDS011;4201;48.754;8.864;2024-01-30T12:55:29;16.50;;;11.07;;
8327;SDS011;4201;48.754;8.864;2024-01-30T12:57:55;18.60;;;11.10;;
8327;SDS011;4201;48.754;8.864;2024-01-30T13:00:21;20.53;;;13.33;;
8327;SDS011;4201;48.754;8.864;2024-01-30T13:02:48;17.87;;;13.30;;
8327;SDS011;4201;48.754;8.864;2024-01-30T13:05:14;19.13;;;12.90;;
8327;SDS011;4201;48.754;8.864;2024-01-30T13:07:40;15.87;;;13.00;;
8327;SDS011;4201;48.754;8.864;2024-01-30T13:10:07;18.53;;;12.50;;
8327;SDS011;4201;48.754;8.864;2024-01-30T13:12:34;18.03;;;11.07;;
8327;SDS011;4201;48.754;8.864;2024-01-30T13:15:02;13.90;;;11.70;;
8327;SDS011;4201;48.754;8.864;2024-01-30T13:17:29;17.73;;;11.10;;
8327;SDS011;4201;48.754;8.864;2024-01-30T13:19:56;17.10;;;10.27;;
8327;SDS011;4201;48.754;8.864;2024-01-30T13:22:23;11.13;;;8.30;;
8327;SDS011;4201;48.754;8.864;2024-01-30T13:24:49;17.90;;;9.10;;
8327;SDS011;4201;48.754;8.864;2024-01-30T13:27:16;13.93;;;9.30;;
8327;SDS011;4201;48.754;8.864;2024-01-30T13:29:44;16.67;;;9.53;;
8327;SDS011;4201;48.754;8.864;2024-01-30T13:32:10;17.93;;;9.93;;
8327;SDS011;4201;48.754;8.864;2024-01-30T13:34:36;12.97;;;8.50;;
8327;SDS011;4201;48.754;8.864;2024-01-30T13:37:03;12.70;;;7.80;;
8327;SDS011;4201;48.754;8.864;2024-01-30T13:39:29;11.60;;;7.77;;
8327;SDS011;4201;48.754;8.864;2024-01-30T13:41:55;11.43;;;7.90;;
8327;SDS011;4201;48.754;8.864;2024-01-30T13:44:21;12.80;;;8.33;;
8327;SDS011;4201;48.754;8.864;2024-01-30T13:46:49;11.30;;;6.00;;
8327;SDS011;4201;48.754;8.864;2024-01-30T13:49:17;15.57;;;7.87;;
8327;SDS011;4201;48.754;8.864;2024-01-30T13:51:46;6.80;;;5.83;;
8327;SDS011;4201;48.754;8.864;2024-01-30T13:54:13;9.93;;;7.00;;
8327;SDS011;4201;48.754;8.864;2024-01-30T13:56:40;10.20;;;7.03;;
8327;SDS011;4201;48.754;8.864;2024-01-30T13:59:06;10.50;;;6.17;;
8327;SDS011;4201;48.754;8.864;2024-01-30T14:01:33;9.53;;;6.40;;
8327;SDS011;4201;48.754;8.864;2024-01-30T14:04:00;8.57;;;6.00;;
8327;SDS011;4201;48.754;8.864;2024-01-30T14:06:26;9.50;;;5.67;;
8327;SDS011;4201;48.754;8.864;2024-01-30T14:08:53;10.00;;;6.40;;
8327;SDS011;4201;48.754;8.864;2024-01-30T14:11:19;9.80;;;6.83;;
8327;SDS011;4201;48.754;8.864;2024-01-30T14:13:46;8.10;;;6.50;;
8327;SDS011;4201;48.754;8.864;2024-01-30T14:16:12;9.23;;;6.13;;
8327;SDS011;4201;48.754;8.864;2024-01-30T14:18:38;7.77;;;5.40;;
8327;SDS011;4201;48.754;8.864;2024-01-30T14:21:07;9.10;;;5.47;;
8327;SDS011;4201;48.754;8.864;2024-01-30T14:23:34;9.03;;;5.30;;
8327;SDS011;4201;48.754;8.864;2024-01-30T14:26:00;7.67;;;4.63;;
8327;SDS011;4201;48.754;8.864;2024-01-30T14:28:26;6.00;;;4.30;;
8327;SDS011;4201;48.754;8.864;2024-01-30T14:30:52;7.40;;;4.70;;
8327;SDS011;4201;48.754;8.864;2024-01-30T14:33:19;7.40;;;4.00;;
8327;SDS011;4201;48.754;8.864;2024-01-30T14:35:45;6.90;;;3.80;;
8327;SDS011;4201;48.754;8.864;2024-01-30T14:38:12;12.20;;;4.37;;
8327;SDS011;4201;48.754;8.864;2024-01-30T14:40:39;6.17;;;3.63;;
8327;SDS011;4201;48.754;8.864;2024-01-30T14:43:05;5.40;;;3.60;;
8327;SDS011;4201;48.754;8.864;2024-01-30T14:45:31;5.50;;;4.00;;
8327;SDS011;4201;48.754;8.864;2024-01-30T14:47:58;5.53;;;3.83;;
8327;SDS011;4201;48.754;8.864;2024-01-30T14:50:24;5.00;;;3.40;;
8327;SDS011;4201;48.754;8.864;2024-01-30T14:52:51;7.43;;;4.40;;
8327;SDS011;4201;48.754;8.864;2024-01-30T14:55:18;6.43;;;3.80;;